Time;durP1;ratioP1;P1;durP2;ratioP2;P2;SDS_P1;SDS_P2;PMS_P1;PMS_P2;Temp;Humidity;BMP_temperature;BMP_pressure;BME280_temperature;BME280_humidity;BME280_pressure;Samples;Min_cycle;Max_cycle;Signal;HPM_P1;HPM_P2
2021/09/30 00:02:57;;;;;;;13.38;4.38;;;;;;;12.18;86.10;102538.06;6262635;28;20316;-73
2021/09/30 00:06:01;;;;;;;23.33;4.50;;;;;;;12.30;84.88;102531.09;6262927;28;20236;-73
2021/09/30 00:09:06;;;;;;;22.92;4.00;;;;;;;12.20;85.69;102533.25;6262828;28;20185;-72
2021/09/30 00:12:15;;;;;;;18.25;4.38;;;;;;;12.18;85.46;102521.66;6262631;28;20215;-72
2021/09/30 00:15:29;;;;;;;13.77;4.22;;;;;;;12.20;86.21;102519.56;6262645;28;20185;-72
2021/09/30 00:35:32;;;;;;;24.40;4.22;;;;;;;12.34;83.58;102504.22;6244191;28;20323;-73
2021/09/30 00:42:03;;;;;;;18.92;4.13;;;;;;;12.39;82.72;102494.41;6244481;28;20247;-72
2021/09/30 00:45:29;;;;;;;31.85;4.32;;;;;;;12.34;82.25;102499.59;6262620;28;20185;-73
2021/09/30 00:48:56;;;;;;;23.70;4.25;;;;;;;12.45;81.88;102490.06;6261226;28;20425;-73
2021/09/30 00:52:04;;;;;;;18.50;3.92;;;;;;;12.49;80.25;102492.22;6262511;28;20240;-73
2021/09/30 01:40:14;;;;;;;19.63;3.83;;;;;;;12.84;78.30;102470.56;6320188;27;20198;-72
2021/09/30 01:58:20;;;;;;;20.85;3.92;;;;;;;12.74;80.08;102451.66;6391323;27;20281;-72
2021/09/30 02:19:18;;;;;;;18.02;4.57;;;;;;;12.73;80.74;102432.69;6390072;27;20228;-73
2021/09/30 02:22:46;;;;;;;19.75;4.50;;;;;;;12.83;80.30;102435.97;6381575;28;20269;-72
2021/09/30 02:26:14;;;;;;;23.08;4.30;;;;;;;12.87;80.14;102434.53;6382102;28;20197;-72
2021/09/30 03:00:24;;;;;;;17.33;4.75;;;;;;;12.82;82.43;102415.94;6364426;28;20323;-71
2021/09/30 03:03:31;;;;;;;16.70;5.35;;;;;;;12.77;82.53;102425.78;6363786;28;20412;-71
2021/09/30 03:06:37;;;;;;;17.23;5.00;;;;;;;12.72;82.82;102420.03;6364346;28;20406;-72
2021/09/30 03:09:45;;;;;;;14.68;5.07;;;;;;;12.85;82.24;102420.19;6364518;28;20202;-72
2021/09/30 03:12:51;;;;;;;13.07;5.22;;;;;;;12.83;82.24;102416.78;6363882;28;20209;-71
2021/09/30 03:15:59;;;;;;;17.05;5.05;;;;;;;12.96;81.80;102414.22;6398526;27;20401;-72
2021/09/30 03:19:19;;;;;;;18.15;5.45;;;;;;;12.92;81.88;102405.53;6364471;28;20237;-71
2021/09/30 03:22:24;;;;;;;20.52;5.45;;;;;;;12.74;82.73;102412.47;6362646;28;20245;-71
2021/09/30 03:25:31;;;;;;;12.98;5.75;;;;;;;12.84;82.07;102407.56;6363582;28;20489;-71
2021/09/30 03:28:39;;;;;;;18.90;6.18;;;;;;;12.88;81.72;102403.38;6363465;28;20201;-72
2021/09/30 03:31:45;;;;;;;18.10;5.85;;;;;;;12.79;82.61;102404.53;6363831;28;20186;-71
2021/09/30 03:35:09;;;;;;;15.52;5.45;;;;;;;12.82;82.76;102404.13;6364872;28;20182;-72
2021/09/30 03:38:14;;;;;;;15.98;5.40;;;;;;;12.79;82.99;102405.38;6362395;28;20201;-72
2021/09/30 03:41:20;;;;;;;13.52;5.30;;;;;;;12.90;82.31;102391.16;6363553;28;20198;-73
2021/09/30 03:44:25;;;;;;;15.77;5.63;;;;;;;12.75;83.42;102386.78;6362264;28;20510;-72
2021/09/30 03:47:29;;;;;;;12.93;5.75;;;;;;;12.76;83.24;102388.50;6363037;28;20270;-71
2021/09/30 03:50:46;;;;;;;20.23;5.35;;;;;;;12.78;83.13;102387.25;6362492;28;20569;-71
2021/09/30 03:53:57;;;;;;;13.60;5.53;;;;;;;12.96;82.01;102384.94;6362782;28;20234;-74
2021/09/30 03:57:06;;;;;;;17.13;5.63;;;;;;;12.91;82.73;102381.06;6364421;28;20244;-73
2021/09/30 04:00:12;;;;;;;11.10;5.90;;;;;;;12.84;83.10;102375.50;6363562;28;20182;-73
2021/09/30 04:03:22;;;;;;;10.30;5.82;;;;;;;12.96;82.63;102384.06;6362850;28;20228;-74
2021/09/30 04:06:29;;;;;;;11.95;6.05;;;;;;;12.89;83.20;102377.69;6396161;27;20233;-74
2021/09/30 04:09:36;;;;;;;10.15;5.90;;;;;;;12.90;83.34;102373.88;6362884;28;20201;-73
2021/09/30 04:12:42;;;;;;;14.73;5.95;;;;;;;12.93;83.14;102368.88;6361939;28;20417;-72
2021/09/30 04:15:49;;;;;;;14.52;5.47;;;;;;;12.92;83.27;102377.25;6361464;28;20250;-73
2021/09/30 04:18:53;;;;;;;14.65;6.20;;;;;;;13.01;82.83;102387.06;6363876;28;20214;-73
2021/09/30 04:21:58;;;;;;;8.45;5.93;;;;;;;12.99;83.18;102378.22;6361391;28;20410;-73
2021/09/30 04:25:03;;;;;;;13.77;5.97;;;;;;;12.92;83.53;102377.25;6363983;28;20220;-73
2021/09/30 04:28:08;;;;;;;20.08;6.50;;;;;;;12.79;84.33;102371.69;6362561;28;20197;-73
2021/09/30 04:31:16;;;;;;;23.65;7.10;;;;;;;12.88;84.08;102370.50;6361798;28;20513;-73
2021/09/30 04:34:25;;;;;;;7.35;5.68;;;;;;;12.89;84.22;102372.19;6362389;28;20280;-73
2021/09/30 04:37:29;;;;;;;14.18;6.47;;;;;;;12.85;84.38;102365.41;6362461;28;20213;-73
2021/09/30 04:40:35;;;;;;;21.65;7.05;;;;;;;12.86;84.77;102361.63;6361742;28;20470;-73
2021/09/30 04:43:44;;;;;;;12.95;6.38;;;;;;;12.90;84.46;102357.44;6361389;28;20226;-74
2021/09/30 04:46:48;;;;;;;11.48;6.90;;;;;;;12.91;84.10;102359.16;6395248;27;20274;-73
2021/09/30 04:50:25;;;;;;;13.75;6.50;;;;;;;13.03;83.18;102352.09;6350623;28;20198;-73
2021/09/30 04:53:29;;;;;;;17.00;6.78;;;;;;;12.90;83.63;102357.44;6360998;28;20233;-73
2021/09/30 04:56:34;;;;;;;17.75;6.82;;;;;;;12.89;83.61;102355.75;6363058;28;20259;-73
2021/09/30 04:59:48;;;;;;;13.57;6.53;;;;;;;12.91;83.68;102356.41;6361052;28;20261;-73
2021/09/30 05:02:58;;;;;;;9.60;6.32;;;;;;;12.93;83.86;102363.38;6361884;28;20566;-73
2021/09/30 05:06:03;;;;;;;12.93;6.80;;;;;;;12.88;83.86;102354.91;6360844;28;20389;-73
2021/09/30 05:09:08;;;;;;;11.18;5.90;;;;;;;12.92;83.75;102355.34;6361772;28;20198;-73
2021/09/30 05:12:15;;;;;;;12.15;6.60;;;;;;;12.91;83.50;102354.53;6360627;28;20202;-73
2021/09/30 05:15:21;;;;;;;16.23;7.00;;;;;;;12.89;83.75;102361.25;6395108;27;20419;-73
2021/09/30 05:18:28;;;;;;;20.40;7.03;;;;;;;12.94;83.56;102353.28;6361188;28;20402;-73
2021/09/30 05:21:32;;;;;;;21.88;7.05;;;;;;;12.87;84.10;102352.34;6360247;28;20257;-73
2021/09/30 05:24:37;;;;;;;13.88;6.50;;;;;;;12.88;83.94;102343.09;6360718;28;20548;-73
2021/09/30 05:27:44;;;;;;;18.25;6.97;;;;;;;12.91;83.92;102350.94;6395255;27;20505;-73
2021/09/30 05:30:52;;;;;;;12.85;6.30;;;;;;;12.89;84.08;102344.81;6360310;28;20236;-73
2021/09/30 05:34:16;;;;;;;17.63;6.20;;;;;;;12.95;83.63;102338.53;6362725;28;20208;-73
2021/09/30 05:37:20;;;;;;;15.50;7.05;;;;;;;12.93;84.02;102346.09;6361597;28;20272;-74
2021/09/30 05:40:27;;;;;;;21.27;6.45;;;;;;;12.96;83.99;102340.22;6361192;28;20274;-73
2021/09/30 05:43:34;;;;;;;23.92;6.55;;;;;;;12.95;84.07;102344.00;6360482;28;20541;-73
2021/09/30 05:46:43;;;;;;;18.67;6.80;;;;;;;13.04;83.32;102345.59;6361257;28;20233;-74
2021/09/30 05:49:49;;;;;;;15.20;6.53;;;;;;;13.02;83.31;102350.38;6360997;28;20271;-73
2021/09/30 05:53:13;;;;;;;16.42;6.25;;;;;;;12.99;83.87;102342.59;6361790;28;20281;-73
2021/09/30 05:56:37;;;;;;;13.00;6.88;;;;;;;13.02;83.99;102339.44;6360712;28;20198;-73
2021/09/30 05:59:43;;;;;;;15.52;6.55;;;;;;;13.02;83.99;102342.16;6360469;28;20198;-73
2021/09/30 06:13:01;;;;;;;13.23;7.30;;;;;;;12.94;84.13;102320.41;6359172;28;20243;-73
2021/09/30 06:16:09;;;;;;;13.20;6.40;;;;;;;12.89;84.78;102317.41;6365012;28;20491;-73
2021/09/30 06:19:19;;;;;;;13.75;6.45;;;;;;;13.02;84.18;102318.34;6365663;28;20304;-73
2021/09/30 06:22:27;;;;;;;13.05;6.45;;;;;;;12.92;84.64;102322.47;6363996;28;20640;-73
2021/09/30 06:25:32;;;;;;;14.95;6.55;;;;;;;13.10;83.87;102322.88;6366436;28;20237;-73
2021/09/30 06:28:36;;;;;;;7.90;6.35;;;;;;;13.17;83.51;102321.06;6364045;28;20198;-73
2021/09/30 06:31:44;;;;;;;12.75;6.22;;;;;;;13.13;83.81;102322.50;6364948;28;20198;-73
2021/09/30 06:35:15;;;;;;;12.80;6.30;;;;;;;13.12;83.64;102318.06;6349387;28;20233;-73
2021/09/30 06:38:29;;;;;;;21.67;6.03;;;;;;;13.05;83.80;102311.63;6364416;28;20487;-73
2021/09/30 06:41:33;;;;;;;16.25;6.68;;;;;;;13.13;83.75;102317.00;6364257;28;20205;-73
2021/09/30 06:45:12;;;;;;;13.23;6.50;;;;;;;13.19;83.34;102318.97;6364782;28;20511;-73
2021/09/30 06:48:16;;;;;;;20.73;5.88;;;;;;;13.13;83.40;102319.75;6366291;28;20284;-73
2021/09/30 06:51:32;;;;;;;12.25;6.45;;;;;;;13.27;82.67;102324.31;6364042;28;20221;-73
2021/09/30 06:54:37;;;;;;;11.25;6.43;;;;;;;13.12;83.18;102329.03;6346559;28;20211;-73
2021/09/30 06:58:19;;;;;;;12.40;6.07;;;;;;;13.24;82.58;102326.59;6365187;28;20198;-73
2021/09/30 07:01:43;;;;;;;14.95;6.90;;;;;;;13.14;83.27;102321.47;6364920;28;20221;-72
2021/09/30 07:05:14;;;;;;;10.55;6.22;;;;;;;13.15;83.01;102321.25;6318016;28;20229;-73
2021/09/30 07:08:38;;;;;;;10.48;6.18;;;;;;;13.10;82.90;102325.63;6347660;28;20206;-73
2021/09/30 07:11:44;;;;;;;12.75;6.38;;;;;;;13.10;83.19;102336.59;6363488;28;20235;-73
2021/09/30 07:14:48;;;;;;;10.05;6.05;;;;;;;13.13;83.36;102330.72;6365090;28;20268;-73
2021/09/30 07:17:53;;;;;;;30.25;6.93;;;;;;;13.11;83.33;102321.84;6364162;28;20182;-73
2021/09/30 07:21:00;;;;;;;19.02;6.13;;;;;;;13.15;82.96;102328.63;6355690;28;20311;-73
2021/09/30 07:24:06;;;;;;;14.55;6.22;;;;;;;13.16;83.14;102324.84;6365227;28;20273;-73
2021/09/30 07:27:11;;;;;;;9.15;5.57;;;;;;;13.06;83.37;102329.78;6389097;27;20186;-73
2021/09/30 07:30:15;;;;;;;10.77;6.32;;;;;;;13.20;82.84;102325.31;6390879;27;20185;-73
2021/09/30 07:33:20;;;;;;;9.40;6.03;;;;;;;13.21;82.62;102337.94;6390413;27;20182;-73
2021/09/30 07:36:25;;;;;;;10.07;5.97;;;;;;;13.15;83.19;102334.09;6390333;27;20182;-73
2021/09/30 07:39:31;;;;;;;10.23;6.30;;;;;;;13.25;82.27;102334.59;6389958;27;20186;-73
2021/09/30 07:42:35;;;;;;;15.77;5.93;;;;;;;13.14;82.39;102337.91;6389540;27;20188;-73
2021/09/30 07:45:39;;;;;;;15.00;6.05;;;;;;;13.13;82.34;102334.31;6390351;27;20209;-73
2021/09/30 07:48:43;;;;;;;9.57;5.63;;;;;;;13.07;82.62;102331.53;6390101;27;20185;-73
2021/09/30 07:51:48;;;;;;;17.40;6.07;;;;;;;13.17;82.01;102329.28;6388817;27;20353;-73
2021/09/30 07:54:55;;;;;;;7.10;5.63;;;;;;;13.18;82.65;102333.72;6390253;27;20192;-73
2021/09/30 07:57:59;;;;;;;10.95;5.53;;;;;;;13.27;81.18;102340.75;6390075;27;20214;-73
2021/09/30 08:01:03;;;;;;;8.15;5.57;;;;;;;13.22;81.66;102343.25;6388584;27;20182;-73
2021/09/30 08:04:09;;;;;;;6.93;5.55;;;;;;;13.23;81.47;102339.44;6389890;27;20246;-73
2021/09/30 08:07:14;;;;;;;8.60;6.25;;;;;;;13.15;81.85;102328.63;6388921;27;20189;-73
2021/09/30 08:10:19;;;;;;;6.80;5.68;;;;;;;13.09;81.98;102340.38;6389795;27;20186;-73
2021/09/30 08:13:23;;;;;;;10.07;5.88;;;;;;;13.02;82.32;102342.16;6388455;27;20496;-73
2021/09/30 08:16:28;;;;;;;13.93;6.25;;;;;;;13.10;82.04;102333.84;6388202;27;20239;-73
2021/09/30 08:19:36;;;;;;;23.02;5.78;;;;;;;13.15;81.72;102334.09;6389641;27;20185;-74
2021/09/30 08:22:41;;;;;;;12.57;5.85;;;;;;;13.17;82.24;102332.03;6389877;27;20260;-73
2021/09/30 08:25:46;;;;;;;10.70;6.38;;;;;;;13.10;82.16;102342.06;6389444;27;20250;-73
2021/09/30 08:28:51;;;;;;;17.05;5.55;;;;;;;13.11;81.55;102338.28;6389472;27;20218;-73
2021/09/30 08:31:55;;;;;;;12.38;5.15;;;;;;;13.14;81.11;102349.72;6387411;27;20474;-73
2021/09/30 08:34:59;;;;;;;14.90;5.70;;;;;;;13.15;81.79;102342.31;6387953;27;20216;-73
2021/09/30 08:38:07;;;;;;;16.05;5.88;;;;;;;13.16;81.70;102342.13;6388964;27;20217;-73
2021/09/30 08:41:14;;;;;;;9.00;6.00;;;;;;;13.25;81.08;102340.09;6388730;27;20181;-73
2021/09/30 08:44:18;;;;;;;10.88;5.63;;;;;;;13.22;80.97;102351.47;6388973;27;20241;-73
2021/09/30 08:47:22;;;;;;;13.73;5.28;;;;;;;13.30;80.21;102351.31;6387607;27;20537;-73
2021/09/30 08:50:28;;;;;;;13.13;5.22;;;;;;;13.26;80.11;102344.53;6388991;27;20219;-73
2021/09/30 08:53:33;;;;;;;11.20;5.50;;;;;;;13.20;79.93;102342.56;6387551;27;20205;-73
2021/09/30 08:56:40;;;;;;;13.15;5.10;;;;;;;13.13;80.18;102347.16;6370544;27;20208;-73
2021/09/30 09:00:00;;;;;;;17.52;4.75;;;;;;;13.16;79.35;102342.13;6388377;27;20202;-73
2021/09/30 09:03:07;;;;;;;8.70;5.35;;;;;;;13.10;78.83;102353.03;6387671;27;20205;-73
2021/09/30 09:06:28;;;;;;;17.20;6.50;;;;;;;12.97;79.25;102361.09;6387965;27;20247;-74
2021/09/30 09:09:32;;;;;;;12.40;5.50;;;;;;;13.04;79.31;102367.50;6387422;27;20186;-72
2021/09/30 09:12:41;;;;;;;13.80;5.28;;;;;;;13.19;78.80;102357.34;6387270;27;20181;-73
2021/09/30 09:15:47;;;;;;;12.75;5.47;;;;;;;13.03;79.50;102368.53;6387272;27;20189;-73
2021/09/30 09:18:52;;;;;;;12.13;5.20;;;;;;;13.06;79.39;102362.66;6387907;27;20256;-73
2021/09/30 09:21:56;;;;;;;14.18;6.00;;;;;;;13.03;79.04;102352.09;6387389;28;20233;-73
2021/09/30 09:25:07;;;;;;;13.20;5.68;;;;;;;12.82;79.49;102354.81;6387046;28;20516;-73
2021/09/30 09:28:15;;;;;;;10.13;5.07;;;;;;;12.95;79.52;102363.19;6388025;28;20182;-73
2021/09/30 09:31:29;;;;;;;17.88;5.57;;;;;;;12.94;79.10;102364.25;6387782;28;20181;-73
2021/09/30 09:34:38;;;;;;;9.35;5.10;;;;;;;12.81;79.75;102364.09;6386918;28;20542;-73
2021/09/30 09:37:42;;;;;;;14.75;5.22;;;;;;;12.97;79.06;102358.34;6388030;28;20182;-73
2021/09/30 09:40:46;;;;;;;6.38;5.32;;;;;;;12.95;79.47;102354.97;6386846;28;20401;-72
2021/09/30 09:43:53;;;;;;;6.38;5.05;;;;;;;12.96;78.65;102356.69;6391551;27;20203;-73
2021/09/30 09:46:58;;;;;;;6.03;5.47;;;;;;;12.82;79.41;102361.16;6393233;27;20282;-72
2021/09/30 09:50:10;;;;;;;9.30;5.28;;;;;;;12.94;78.88;102354.09;6391855;27;20407;-72
2021/09/30 09:53:18;;;;;;;12.98;5.15;;;;;;;13.01;79.03;102356.94;6393038;27;20261;-72
2021/09/30 09:56:22;;;;;;;8.23;5.63;;;;;;;12.94;78.81;102358.75;6391673;27;20497;-72
2021/09/30 09:59:32;;;;;;;17.33;5.90;;;;;;;12.94;78.95;102345.06;6393575;27;20182;-72
2021/09/30 10:02:36;;;;;;;11.23;5.45;;;;;;;12.97;79.65;102341.91;6392156;27;20181;-72
2021/09/30 10:05:41;;;;;;;13.63;5.70;;;;;;;13.00;79.39;102347.00;6392092;27;20272;-73
2021/09/30 10:08:46;;;;;;;5.88;4.93;;;;;;;13.04;78.47;102337.38;6391586;27;20268;-73
2021/09/30 10:11:50;;;;;;;10.88;5.55;;;;;;;13.15;77.75;102334.94;6392775;27;20181;-72
2021/09/30 10:14:59;;;;;;;10.60;5.50;;;;;;;13.24;77.76;102332.06;6392384;27;20220;-73
2021/09/30 10:18:05;;;;;;;10.05;6.00;;;;;;;13.16;78.31;102325.69;6392619;27;20219;-73
2021/09/30 10:21:12;;;;;;;8.30;5.88;;;;;;;13.03;78.57;102324.69;6391036;27;20321;-73
2021/09/30 10:24:19;;;;;;;9.20;6.05;;;;;;;13.05;78.53;102320.72;6392286;27;20181;-73
2021/09/30 10:27:24;;;;;;;17.20;6.22;;;;;;;13.12;78.27;102323.56;6391326;27;20210;-73
2021/09/30 10:30:35;;;;;;;10.25;5.97;;;;;;;13.14;78.21;102326.94;6392298;27;20203;-73
2021/09/30 10:33:43;;;;;;;11.13;6.30;;;;;;;13.17;78.55;102315.59;6391927;27;20234;-73
2021/09/30 10:36:49;;;;;;;12.63;6.28;;;;;;;13.12;78.22;102315.34;6390726;27;20552;-73
2021/09/30 10:40:15;;;;;;;11.27;6.25;;;;;;;12.99;78.09;102318.75;6391856;27;20203;-73
2021/09/30 10:43:23;;;;;;;12.45;5.80;;;;;;;13.10;78.44;102309.19;6391986;27;20189;-73
2021/09/30 10:46:57;;;;;;;18.17;6.53;;;;;;;13.14;78.10;102310.50;6390757;27;20216;-73
2021/09/30 10:50:01;;;;;;;7.07;5.85;;;;;;;13.19;77.65;102310.75;6390569;27;20247;-73
2021/09/30 10:53:05;;;;;;;15.68;6.10;;;;;;;13.03;78.33;102308.25;6391298;27;20211;-73
2021/09/30 10:56:49;;;;;;;10.52;6.03;;;;;;;13.21;77.49;102303.16;6391312;27;20231;-73
2021/09/30 10:59:53;;;;;;;11.10;6.80;;;;;;;13.12;78.26;102298.91;6359150;27;20565;-73
2021/09/30 11:03:21;;;;;;;11.90;6.15;;;;;;;13.00;78.58;102298.53;6391746;27;20248;-73
2021/09/30 11:06:26;;;;;;;13.30;6.45;;;;;;;13.04;78.47;102296.25;6390498;27;20213;-73
2021/09/30 11:09:30;;;;;;;18.65;7.03;;;;;;;12.92;79.58;102300.56;6391352;27;20249;-73
2021/09/30 11:12:34;;;;;;;13.80;5.95;;;;;;;12.96;79.66;102285.44;6390654;27;20289;-73
2021/09/30 11:16:05;;;;;;;13.48;7.03;;;;;;;13.00;79.48;102275.75;6389849;27;20188;-73
2021/09/30 11:19:31;;;;;;;16.33;6.53;;;;;;;13.02;78.22;102285.47;6389897;27;20204;-73
2021/09/30 11:22:41;;;;;;;15.88;6.78;;;;;;;13.16;78.31;102270.03;6390934;27;20402;-73
2021/09/30 11:26:05;;;;;;;11.77;6.82;;;;;;;13.06;79.06;102264.03;6390937;27;20181;-73
2021/09/30 11:29:28;;;;;;;20.00;6.60;;;;;;;13.10;78.54;102252.50;6390788;27;20216;-73
2021/09/30 11:32:32;;;;;;;14.90;6.35;;;;;;;13.06;78.40;102258.53;6390970;27;20292;-73
2021/09/30 11:35:47;;;;;;;16.30;7.07;;;;;;;12.97;78.83;102263.31;6389495;27;20466;-73
2021/09/30 11:38:56;;;;;;;15.60;6.82;;;;;;;13.04;78.75;102255.16;6390124;27;20188;-73
2021/09/30 11:42:01;;;;;;;10.55;6.90;;;;;;;13.03;78.92;102264.41;6390648;27;20182;-73
2021/09/30 11:45:10;;;;;;;12.63;6.32;;;;;;;13.01;78.83;102266.50;6390580;27;20186;-73
2021/09/30 11:48:14;;;;;;;7.25;6.57;;;;;;;13.09;78.71;102252.72;6389057;27;20398;-73
2021/09/30 11:51:20;;;;;;;11.13;6.43;;;;;;;13.02;78.90;102259.97;6389668;27;20220;-73
2021/09/30 11:54:26;;;;;;;14.60;7.25;;;;;;;13.01;79.39;102261.03;6390414;27;20186;-73
2021/09/30 11:57:30;;;;;;;10.43;6.38;;;;;;;13.02;79.13;102262.72;6390221;27;20230;-73
2021/09/30 12:00:34;;;;;;;13.50;6.72;;;;;;;13.05;79.05;102262.31;6390199;27;20218;-73
2021/09/30 12:03:54;;;;;;;17.27;6.93;;;;;;;13.09;79.32;102258.19;6390179;27;20188;-73
2021/09/30 12:06:59;;;;;;;14.50;6.53;;;;;;;13.02;79.62;102249.88;6387727;27;20205;-73
2021/09/30 12:10:05;;;;;;;12.23;7.15;;;;;;;13.03;79.53;102258.94;6390076;27;20188;-73
2021/09/30 12:13:19;;;;;;;17.02;7.15;;;;;;;12.98;80.52;102250.47;6388525;27;20409;-73
2021/09/30 12:16:23;;;;;;;15.05;7.15;;;;;;;12.92;80.79;102256.72;6389832;27;20186;-73
2021/09/30 12:19:31;;;;;;;10.77;7.32;;;;;;;12.93;80.80;102252.97;6388860;27;20189;-73
2021/09/30 12:22:39;;;;;;;12.05;7.38;;;;;;;12.88;81.29;102247.22;6388361;27;20395;-73
2021/09/30 12:25:44;;;;;;;16.73;7.82;;;;;;;12.97;81.16;102249.63;6388599;27;20188;-73
2021/09/30 12:28:48;;;;;;;10.68;7.85;;;;;;;12.95;81.46;102245.38;6388890;27;20217;-76
2021/09/30 12:32:04;;;;;;;13.55;7.90;;;;;;;12.97;81.81;102226.84;6389562;27;20188;-73
2021/09/30 12:35:10;;;;;;;18.38;7.95;;;;;;;12.94;81.70;102243.69;6389818;27;20182;-73
2021/09/30 12:38:19;;;;;;;13.48;7.53;;;;;;;13.04;81.62;102227.75;6388114;27;20213;-74
2021/09/30 12:41:23;;;;;;;16.30;8.23;;;;;;;13.09;81.10;102219.81;6389244;27;20189;-73
2021/09/30 12:44:33;;;;;;;8.75;7.55;;;;;;;12.96;81.72;102230.66;6387832;27;20264;-73
2021/09/30 12:47:40;;;;;;;18.90;8.20;;;;;;;13.02;81.47;102219.72;6387617;27;20277;-73
2021/09/30 12:50:47;;;;;;;13.45;8.07;;;;;;;12.97;81.83;102210.41;6388479;27;20289;-73
2021/09/30 12:53:54;;;;;;;18.70;8.60;;;;;;;13.00;81.86;102226.44;6387657;27;20496;-73
2021/09/30 12:57:10;;;;;;;11.88;8.15;;;;;;;12.94;82.41;102205.34;6388887;27;20189;-73
2021/09/30 13:00:17;;;;;;;19.35;8.07;;;;;;;12.96;82.62;102214.22;6388906;27;20190;-73
2021/09/30 13:03:24;;;;;;;18.75;8.93;;;;;;;12.92;83.21;102201.94;6388804;27;20213;-73
2021/09/30 13:06:29;;;;;;;11.55;8.25;;;;;;;13.00;83.20;102212.75;6387885;27;20188;-73
2021/09/30 13:09:37;;;;;;;18.10;8.82;;;;;;;12.89;84.19;102207.84;6388759;27;20205;-73
2021/09/30 13:13:02;;;;;;;16.65;8.10;;;;;;;12.92;84.88;102197.31;6387335;27;20242;-73
2021/09/30 13:16:23;;;;;;;13.70;9.52;;;;;;;12.97;84.85;102204.94;6388510;27;20182;-73
2021/09/30 13:19:43;;;;;;;11.40;8.52;;;;;;;13.02;84.86;102199.69;6388673;27;20193;-73
2021/09/30 13:22:48;;;;;;;13.00;8.70;;;;;;;12.90;86.43;102198.56;6387622;27;20245;-73
2021/09/30 13:25:53;;;;;;;13.00;8.45;;;;;;;12.84;87.48;102188.41;6387099;28;20404;-74
2021/09/30 13:28:58;;;;;;;9.95;8.30;;;;;;;12.80;88.41;102193.44;6387408;28;20213;-73
2021/09/30 13:32:02;;;;;;;13.00;8.25;;;;;;;12.85;88.79;102195.56;6388381;28;20256;-73
2021/09/30 13:35:08;;;;;;;8.48;7.65;;;;;;;12.61;90.56;102198.75;6388229;28;20182;-73
2021/09/30 13:38:12;;;;;;;12.68;7.75;;;;;;;12.73;90.05;102180.75;6387524;28;20223;-73
2021/09/30 13:41:18;;;;;;;13.07;8.00;;;;;;;12.78;89.84;102178.25;6387900;28;20227;-73
2021/09/30 13:44:22;;;;;;;12.05;8.30;;;;;;;12.76;90.26;102174.88;6386823;28;20209;-73
2021/09/30 13:47:28;;;;;;;17.73;8.32;;;;;;;12.58;91.37;102173.44;6388147;28;20209;-73
2021/09/30 13:50:33;;;;;;;8.82;7.68;;;;;;;12.77;91.00;102179.28;6387858;28;20181;-73
2021/09/30 13:53:38;;;;;;;10.63;7.43;;;;;;;12.77;91.08;102165.59;6387972;28;20234;-73
2021/09/30 13:56:43;;;;;;;12.30;7.40;;;;;;;12.68;91.83;102161.31;6387476;28;20236;-73
2021/09/30 13:59:48;;;;;;;14.75;7.15;;;;;;;12.54;92.27;102161.22;6387714;28;20185;-73
2021/09/30 14:03:22;;;;;;;8.63;7.50;;;;;;;12.61;92.38;102149.47;6387904;28;20205;-74
2021/09/30 14:06:26;;;;;;;9.10;6.93;;;;;;;12.58;92.60;102146.06;6386621;28;20182;-74
2021/09/30 14:09:32;;;;;;;7.80;6.88;;;;;;;12.56;93.10;102145.44;6387414;28;20217;-74
2021/09/30 14:12:37;;;;;;;11.82;7.97;;;;;;;12.55;93.33;102138.28;6387831;28;20181;-73
2021/09/30 14:15:42;;;;;;;12.60;7.85;;;;;;;12.62;92.79;102131.97;6387779;28;20181;-74
2021/09/30 14:18:46;;;;;;;11.95;7.70;;;;;;;12.68;92.76;102120.25;6387601;28;20190;-73
2021/09/30 14:21:50;;;;;;;14.88;7.43;;;;;;;12.70;92.47;102123.63;6386717;28;20260;-74
2021/09/30 14:24:55;;;;;;;8.57;7.65;;;;;;;12.68;93.20;102128.47;6387800;28;20181;-74
2021/09/30 14:28:00;;;;;;;13.25;8.20;;;;;;;12.75;92.99;102137.56;6387858;27;20284;-74
2021/09/30 14:31:04;;;;;;;21.92;8.07;;;;;;;12.75;93.14;102123.88;6391520;27;20265;-74
2021/09/30 14:34:10;;;;;;;14.52;8.23;;;;;;;12.57;94.32;102130.69;6392088;27;20189;-73
2021/09/30 14:37:14;;;;;;;10.75;7.85;;;;;;;12.57;95.63;102117.03;6392313;27;20181;-73
2021/09/30 14:40:18;;;;;;;15.18;8.75;;;;;;;12.57;96.66;102119.75;6390798;27;20248;-73
2021/09/30 14:43:29;;;;;;;14.10;8.23;;;;;;;12.70;96.20;102120.88;6390649;27;20353;-73
2021/09/30 14:46:33;;;;;;;19.13;8.63;;;;;;;12.72;96.91;102124.25;6391225;27;20190;-73
2021/09/30 14:49:39;;;;;;;12.85;8.60;;;;;;;12.71;97.49;102117.13;6391806;27;20205;-73
2021/09/30 14:52:44;;;;;;;13.30;7.80;;;;;;;12.62;98.51;102108.19;6391875;27;20185;-73
2021/09/30 14:55:48;;;;;;;9.43;7.70;;;;;;;12.61;100.00;102116.63;6390414;27;20399;-76
2021/09/30 14:58:53;;;;;;;8.45;7.18;;;;;;;12.75;97.88;102107.44;6390422;27;20473;-73
2021/09/30 15:01:58;;;;;;;8.70;6.80;;;;;;;12.67;98.42;102099.38;6390410;27;20346;-73
2021/09/30 15:05:02;;;;;;;10.25;6.72;;;;;;;12.78;97.85;102096.09;6391144;27;20186;-74
2021/09/30 15:08:06;;;;;;;9.38;6.53;;;;;;;12.68;98.33;102095.59;6391470;27;20212;-73
2021/09/30 15:11:10;;;;;;;7.65;6.38;;;;;;;12.67;99.32;102091.16;6391593;27;20186;-73
2021/09/30 15:14:16;;;;;;;7.65;6.07;;;;;;;12.67;99.69;102088.41;6390100;27;20216;-73
2021/09/30 15:17:25;;;;;;;6.97;5.88;;;;;;;12.72;99.50;102095.00;6391471;27;20217;-73
2021/09/30 15:23:56;;;;;;;5.90;5.40;;;;;;;12.77;99.55;102086.16;6356944;28;20214;-73
2021/09/30 15:27:01;;;;;;;5.82;5.05;;;;;;;12.72;100.00;102077.72;6365276;28;20249;-73
2021/09/30 15:30:08;;;;;;;6.40;5.20;;;;;;;12.73;100.00;102079.41;6365185;28;20210;-73
2021/09/30 15:33:12;;;;;;;5.30;4.90;;;;;;;12.85;99.67;102064.09;6364913;28;20260;-73
2021/09/30 15:36:17;;;;;;;5.28;4.82;;;;;;;12.75;100.00;102075.44;6364972;28;20182;-73
2021/09/30 15:39:21;;;;;;;5.53;5.05;;;;;;;12.64;100.00;102075.13;6364517;28;20190;-73
2021/09/30 15:42:25;;;;;;;5.00;4.70;;;;;;;12.72;100.00;102064.00;6364827;28;20189;-73
2021/09/30 15:45:31;;;;;;;5.00;4.70;;;;;;;12.69;100.00;102057.06;6363930;28;20213;-73
2021/09/30 15:48:35;;;;;;;5.32;5.03;;;;;;;12.69;100.00;102058.94;6363403;28;20263;-73
2021/09/30 15:51:39;;;;;;;5.75;4.90;;;;;;;12.67;100.00;102050.09;6364598;28;20279;-73
2021/09/30 15:54:44;;;;;;;5.55;5.07;;;;;;;12.66;100.00;102059.38;6363304;28;20297;-73
2021/09/30 15:57:49;;;;;;;5.28;4.85;;;;;;;12.70;100.00;102055.16;6363470;28;20393;-73
2021/09/30 16:00:54;;;;;;;6.60;5.00;;;;;;;12.70;100.00;102052.44;6363379;28;20417;-73
2021/09/30 16:03:59;;;;;;;5.18;4.78;;;;;;;12.69;100.00;102050.72;6364152;28;20213;-73
2021/09/30 16:07:03;;;;;;;4.97;4.53;;;;;;;12.74;100.00;102056.44;6363182;28;20218;-73
2021/09/30 16:10:08;;;;;;;5.60;4.95;;;;;;;12.73;100.00;102066.56;6363651;28;20217;-73
2021/09/30 16:13:13;;;;;;;5.30;4.85;;;;;;;12.79;100.00;102064.94;6363453;28;20227;-73
2021/09/30 16:16:18;;;;;;;6.53;4.63;;;;;;;12.70;100.00;102060.66;6362812;28;20501;-73
2021/09/30 16:19:22;;;;;;;4.95;4.65;;;;;;;12.74;100.00;102061.91;6363730;28;20232;-72
2021/09/30 16:22:27;;;;;;;5.05;4.60;;;;;;;12.85;100.00;102053.16;6363837;28;20237;-73
2021/09/30 16:25:31;;;;;;;5.35;4.13;;;;;;;12.87;100.00;102067.47;6362659;28;20197;-73
2021/09/30 16:28:36;;;;;;;6.75;4.85;;;;;;;12.83;100.00;102058.84;6363704;28;20292;-73
2021/09/30 16:31:42;;;;;;;4.57;4.40;;;;;;;12.76;100.00;102051.63;6363871;28;20213;-73
2021/09/30 16:34:46;;;;;;;7.20;4.65;;;;;;;12.80;100.00;102055.66;6362939;28;20218;-72
2021/09/30 16:37:51;;;;;;;5.03;4.55;;;;;;;12.81;100.00;102051.88;6362227;28;20490;-72
2021/09/30 16:40:56;;;;;;;4.60;4.30;;;;;;;12.93;100.00;102066.69;6363330;28;20231;-72
2021/09/30 16:44:00;;;;;;;5.20;4.70;;;;;;;12.95;100.00;102070.06;6363722;28;20249;-72
2021/09/30 16:47:06;;;;;;;5.22;4.82;;;;;;;12.88;100.00;102060.97;6362347;28;20329;-72
2021/09/30 16:50:11;;;;;;;5.00;4.63;;;;;;;12.86;100.00;102065.81;6361859;28;20307;-72
2021/09/30 16:53:18;;;;;;;4.72;4.32;;;;;;;12.84;100.00;102056.94;6361913;28;20485;-72